Los Angeles, CA (90065)

12:57 PM PST on February 06, 2016 (GMT -0800)
Mt. Washington | | Change Station
CLOSE
Current Station
Personal Weather Station
Location: Los Angeles, CA
Elevation: 860 ft
Nearby Weather Stations

Elev 860 ft 34.10 °N, 118.22 °W | Updated 15 seconds ago

Clear
Clear
75.0 °F
Feels Like 76 °F
N
0.4
Wind Variable Wind from SE
Gusts 2.5 mph

Today
High -- | Low -- °F
--% Chance of Precip.
Yesterday
High -- | Low -- °F
Precip. -- in
Pressure 30.18 in
Visibility 10.0 miles
Clouds Clear
Heat Index 76 °F
Dew Point 31 °F
Humidity 20%
Rainfall 0.00 in
Snow Depth Not available.
6:46 AM 5:27 PM
Waning Crescent, 4% visible
METAR KCQT 062047Z AUTO 00000KT 10SM CLR 24/M03 A3018 RMK AO2 SLP220 T02441033 58030
Pressure 30.18 in
Visibility 10.0 miles
Clouds Clear
Heat Index 76 °F
Dew Point 31 °F
Humidity 20%
Rainfall 0.00 in
Snow Depth Not available.
6:46 AM 5:27 PM
Waning Crescent, 4% visible
METAR KCQT 062047Z AUTO 00000KT 10SM CLR 24/M03 A3018 RMK AO2 SLP220 T02441033 58030

10-Day Weather Forecast

Almanac

Astronomy

Feb. 06, 2016 Rise Set
Actual Time
Civil Twilight
Nautical Twilight
Astronomical Twilight
Moon
Length of Visible Light
Length of Day
Tomorrow will be .
, % of the Moon is Illuminated

Today's Extremes

State Highs State Lows

Community

WunderPhotos

Upload Photos

1,891,046 photos uploaded!

WunderBlog® & News

Nearby

Air Quality

  Air Quality AQ Index Pollutant
Not available.

Snow Depth

Station Depth Elevation

Earthquake Activity

City Distance Mag. Time & Date
Minimum magnitude displayed is 2.5.

Coastal Water Temperatures

Place Temperature

Stations

Nearby Weather Stations

Station Location Temp. Windchill Dew Point Humidity Wind Precip. Elev Updated Type
                   

Watches & Warnings

There are currently no watches in effect.